Time;durP1;ratioP1;P1;durP2;ratioP2;P2;SDS_P1;SDS_P2;PMS_P1;PMS_P2;Temp;Humidity;BMP_temperature;BMP_pressure;BME280_temperature;BME280_humidity;BME280_pressure;Samples;Min_cycle;Max_cycle;Signal;HPM_P1;HPM_P2
2022/12/15 00:41:52;;;;;;;22.48;9.60;;;;;;;-1.38;100.00;98701.69;12202907;19;20010;-82
2022/12/15 01:20:43;;;;;;;21.08;8.65;;;;;;;-1.39;100.00;98755.94;12201583;19;20010;-80
2022/12/15 01:24:45;;;;;;;23.90;9.00;;;;;;;-1.45;100.00;98754.88;12171898;19;20753;-81
2022/12/15 01:28:47;;;;;;;21.60;8.07;;;;;;;-1.48;100.00;98760.66;12201021;19;20939;-79
2022/12/15 01:32:49;;;;;;;24.65;9.32;;;;;;;-1.56;100.00;98762.69;12199575;19;20028;-81
2022/12/15 01:36:51;;;;;;;18.25;8.32;;;;;;;-1.64;100.00;98769.94;12179973;19;20369;-83
2022/12/15 01:40:55;;;;;;;21.63;8.23;;;;;;;-1.66;100.00;98776.56;12201058;19;20638;-82
2022/12/15 01:45:22;;;;;;;29.52;10.90;;;;;;;-1.71;100.00;98779.81;12198514;19;20010;-80
2022/12/15 01:49:27;;;;;;;23.13;9.07;;;;;;;-1.75;100.00;98780.44;12178430;19;20022;-81
2022/12/15 01:53:33;;;;;;;19.95;8.70;;;;;;;-1.80;100.00;98778.31;12196843;19;20382;-82
2022/12/15 01:57:36;;;;;;;20.10;8.13;;;;;;;-1.84;100.00;98777.88;12181582;19;20007;-82
2022/12/15 02:01:38;;;;;;;20.00;8.20;;;;;;;-1.85;100.00;98788.84;12198308;19;21426;-81
2022/12/15 02:05:44;;;;;;;18.90;8.20;;;;;;;-1.88;100.00;98792.78;12202993;19;20011;-81
2022/12/15 02:09:49;;;;;;;19.63;8.95;;;;;;;-1.94;100.00;98798.94;12224870;19;20032;-77
2022/12/15 02:14:00;;;;;;;20.38;8.50;;;;;;;-1.97;100.00;98802.03;12242801;19;20034;-79
2022/12/15 02:18:13;;;;;;;19.67;9.05;;;;;;;-1.98;100.00;98810.34;12206912;19;20027;-80
2022/12/15 02:22:58;;;;;;;19.95;8.18;;;;;;;-1.99;100.00;98801.41;12173499;19;20010;-82
2022/12/15 02:27:08;;;;;;;19.23;8.23;;;;;;;-2.04;100.00;98801.16;12200646;19;20011;-80
2022/12/15 02:35:50;;;;;;;18.95;7.80;;;;;;;-2.18;100.00;98797.47;12192912;19;20030;-81
2022/12/15 02:39:52;;;;;;;16.77;6.93;;;;;;;-2.23;100.00;98796.38;12188451;19;20527;-80
2022/12/15 02:43:54;;;;;;;26.85;9.00;;;;;;;-2.30;100.00;98797.16;12198998;19;20005;-80
2022/12/15 02:48:14;;;;;;;22.40;8.37;;;;;;;-2.38;100.00;98797.31;12190426;19;20492;-82
2022/12/15 02:52:38;;;;;;;25.83;9.40;;;;;;;-2.48;100.00;98796.75;12171870;19;20619;-81
2022/12/15 02:56:54;;;;;;;25.85;9.63;;;;;;;-2.59;100.00;98808.91;12191892;19;20014;-81
2022/12/15 03:01:12;;;;;;;22.08;9.40;;;;;;;-2.69;100.00;98821.00;12189175;19;20026;-80
2022/12/15 03:05:15;;;;;;;22.85;9.20;;;;;;;-2.80;100.00;98817.75;12199441;19;20011;-82
2022/12/15 03:09:17;;;;;;;29.42;10.35;;;;;;;-2.87;100.00;98814.16;12207437;19;20047;-83
2022/12/15 03:13:19;;;;;;;22.95;9.95;;;;;;;-2.94;100.00;98824.03;12178785;19;20377;-80
2022/12/15 03:17:21;;;;;;;22.60;9.55;;;;;;;-3.03;100.00;98831.38;12206060;19;19999;-78
2022/12/15 03:21:22;;;;;;;26.52;10.05;;;;;;;-3.07;100.00;98843.53;12210960;19;20043;-82
2022/12/15 03:25:24;;;;;;;19.83;9.73;;;;;;;-3.13;100.00;98840.75;12177683;19;20031;-80
2022/12/15 03:29:25;;;;;;;34.47;12.00;;;;;;;-3.19;100.00;98841.50;12203533;19;20034;-81
2022/12/15 03:33:27;;;;;;;24.33;9.90;;;;;;;-3.27;100.00;98845.94;12198042;19;20011;-82
2022/12/15 03:37:30;;;;;;;27.23;11.02;;;;;;;-3.32;100.00;98858.31;12180396;19;20018;-82
2022/12/15 03:41:32;;;;;;;26.25;10.80;;;;;;;-3.38;100.00;98861.72;12203985;19;20006;-81
2022/12/15 03:45:34;;;;;;;22.50;10.37;;;;;;;-3.39;100.00;98866.28;12181676;19;20064;-81
2022/12/15 03:49:35;;;;;;;21.80;10.83;;;;;;;-3.42;100.00;98866.66;12205711;19;20003;-78
2022/12/15 03:53:39;;;;;;;26.08;11.50;;;;;;;-3.39;100.00;98873.50;12203102;19;20013;-80
2022/12/15 03:57:41;;;;;;;;;;;;;;;-3.31;100.00;98871.56;12190031;19;20010;-81
2022/12/15 04:01:46;;;;;;;27.35;10.80;;;;;;;-3.22;100.00;98875.03;12220102;19;19922;-82
2022/12/15 04:05:48;;;;;;;27.98;11.20;;;;;;;-3.16;100.00;98878.84;12203681;19;20033;-82
2022/12/15 04:09:50;;;;;;;26.23;10.73;;;;;;;-3.15;100.00;98872.41;12192814;19;20078;-78
2022/12/15 04:13:52;;;;;;;25.13;11.53;;;;;;;-3.15;100.00;98875.13;12221386;19;20380;-77
2022/12/15 04:17:54;;;;;;;28.53;10.63;;;;;;;-3.14;100.00;98868.72;12222650;19;20006;-82
2022/12/15 04:21:56;;;;;;;27.75;11.30;;;;;;;-3.17;100.00;98863.72;12180368;19;20448;-81
2022/12/15 05:35:28;;;;;;;22.60;9.23;;;;;;;-3.39;100.00;98901.31;12205992;19;20003;-80
2022/12/15 05:39:30;;;;;;;21.48;10.63;;;;;;;-3.43;100.00;98883.81;12193653;19;20007;-80
2022/12/15 05:43:31;;;;;;;21.07;9.97;;;;;;;-3.48;100.00;98886.22;12204614;19;20007;-79
2022/12/15 05:47:34;;;;;;;23.25;9.77;;;;;;;-3.53;100.00;98889.47;12205291;19;20026;-83
2022/12/15 05:51:39;;;;;;;26.67;10.73;;;;;;;-3.59;100.00;98890.19;12185043;19;20468;-80
2022/12/15 05:55:40;;;;;;;18.02;8.82;;;;;;;-3.64;100.00;98891.75;12211317;19;20014;-80
2022/12/15 05:59:42;;;;;;;19.23;9.00;;;;;;;-3.69;100.00;98906.59;12202915;19;20013;-81
2022/12/15 06:03:44;;;;;;;27.73;9.27;;;;;;;-3.73;100.00;98920.59;12179327;19;20496;-82
2022/12/15 06:07:46;;;;;;;23.58;9.32;;;;;;;-3.76;100.00;98943.31;12203470;19;20512;-82
2022/12/15 06:11:48;;;;;;;24.70;8.83;;;;;;;-3.78;100.00;98933.75;12222037;19;20003;-79
2022/12/15 06:16:09;;;;;;;25.70;10.93;;;;;;;-3.80;100.00;98943.88;12204015;19;20016;-77
2022/12/15 06:20:11;;;;;;;23.83;9.75;;;;;;;-3.83;100.00;98946.94;12226467;19;20622;-81
2022/12/15 06:24:12;;;;;;;24.70;9.43;;;;;;;-3.82;100.00;98951.28;12210322;19;20041;-80
2022/12/15 06:28:15;;;;;;;23.03;7.33;;;;;;;-3.83;100.00;98947.75;12193544;19;20007;-79
2022/12/15 06:32:17;;;;;;;25.38;10.57;;;;;;;-3.87;100.00;98943.72;12235654;19;20002;-79
2022/12/15 06:36:19;;;;;;;26.90;10.32;;;;;;;-3.95;100.00;98944.66;12205112;19;20019;-78
2022/12/15 06:40:20;;;;;;;25.80;9.80;;;;;;;-4.03;100.00;98958.13;12181979;19;20002;-81
2022/12/15 06:44:22;;;;;;;25.43;10.03;;;;;;;-4.07;100.00;98961.38;12212403;19;20547;-77
2022/12/15 06:48:24;;;;;;;21.60;8.90;;;;;;;-4.14;100.00;98948.59;12211676;19;20017;-81
2022/12/15 06:52:26;;;;;;;25.17;9.43;;;;;;;-4.17;100.00;98951.66;12185519;19;20018;-80
2022/12/15 06:56:30;;;;;;;20.67;8.67;;;;;;;-4.18;100.00;98954.53;12227599;19;20002;-81
2022/12/15 07:00:35;;;;;;;23.65;10.57;;;;;;;-4.19;100.00;98964.47;12212640;19;20003;-80
2022/12/15 07:04:39;;;;;;;23.00;10.07;;;;;;;-4.21;100.00;98974.56;12216999;19;20358;-81
2022/12/15 07:08:42;;;;;;;27.48;10.18;;;;;;;-4.21;100.00;98979.94;12202829;19;19999;-81
2022/12/15 07:12:44;;;;;;;28.08;10.15;;;;;;;-4.26;100.00;98974.22;12183174;19;20353;-82
2022/12/15 07:16:45;;;;;;;22.27;11.30;;;;;;;-4.29;100.00;98976.44;12202722;19;20014;-81
2022/12/15 07:20:51;;;;;;;23.08;10.70;;;;;;;-4.32;100.00;98984.84;12202418;19;20006;-82
2022/12/15 07:24:52;;;;;;;21.27;10.13;;;;;;;-4.39;100.00;98988.25;12183343;19;20014;-81
2022/12/15 07:28:54;;;;;;;22.43;7.97;;;;;;;-4.51;100.00;98980.75;12204218;19;20590;-80
2022/12/15 07:32:57;;;;;;;24.30;11.07;;;;;;;-4.57;100.00;98982.28;12208238;19;20003;-81
2022/12/15 07:36:59;;;;;;;27.58;11.95;;;;;;;-4.65;100.00;98993.03;12188958;19;20099;-79
2022/12/15 07:41:03;;;;;;;29.87;12.13;;;;;;;-4.65;100.00;98995.72;12252994;19;20003;-81
2022/12/15 07:45:06;;;;;;;29.85;12.55;;;;;;;-4.65;100.00;98991.19;12239976;19;20007;-79
2022/12/15 07:49:08;;;;;;;25.85;11.73;;;;;;;-4.65;100.00;98993.03;12186834;19;20020;-79
2022/12/15 07:53:09;;;;;;;29.33;12.18;;;;;;;-4.65;100.00;99001.94;12193648;19;20014;-81
2022/12/15 07:57:11;;;;;;;27.77;12.87;;;;;;;-4.69;100.00;99011.38;12190386;19;20757;-80
2022/12/15 08:01:14;;;;;;;24.90;9.33;;;;;;;-4.76;100.00;99010.34;12188256;19;20348;-81
2022/12/15 08:05:16;;;;;;;26.77;12.23;;;;;;;-4.80;100.00;99011.72;12207998;19;20260;-79
2022/12/15 08:09:18;;;;;;;34.15;12.73;;;;;;;-4.83;100.00;99010.22;12207593;19;20070;-80
2022/12/15 08:13:19;;;;;;;40.25;16.33;;;;;;;-4.80;100.00;99009.03;12189151;19;20014;-80
2022/12/15 08:17:42;;;;;;;29.10;13.02;;;;;;;-4.75;100.00;99022.81;12209108;19;20496;-80
2022/12/15 08:21:45;;;;;;;28.23;12.75;;;;;;;-4.66;100.00;99031.69;12187341;19;20449;-80
2022/12/15 08:25:47;;;;;;;30.33;12.60;;;;;;;-4.58;100.00;99026.31;12207247;19;20007;-80
2022/12/15 08:29:49;;;;;;;29.75;13.30;;;;;;;-4.49;100.00;99017.19;12207165;19;20547;-80
2022/12/15 08:33:53;;;;;;;36.35;14.15;;;;;;;-4.36;100.00;99014.78;12179665;19;20019;-81
2022/12/15 08:37:55;;;;;;;44.60;15.02;;;;;;;-4.25;100.00;99008.22;12208694;19;20094;-80
2022/12/15 08:42:04;;;;;;;37.78;15.00;;;;;;;-4.11;100.00;99009.31;12249469;19;20029;-78
2022/12/15 08:46:07;;;;;;;41.27;14.93;;;;;;;-3.89;100.00;99023.84;12215136;19;20014;-80
2022/12/15 08:50:09;;;;;;;45.53;14.63;;;;;;;-3.67;100.00;99022.19;12211237;19;20401;-80
2022/12/15 08:54:10;;;;;;;35.07;15.03;;;;;;;-3.51;100.00;99037.41;12217557;19;20070;-80
2022/12/15 08:58:14;;;;;;;43.30;14.52;;;;;;;-3.34;100.00;99044.34;12185741;19;20284;-82
2022/12/15 09:02:16;;;;;;;36.85;13.85;;;;;;;-3.26;100.00;99063.16;12207633;19;20415;-80
2022/12/15 09:06:24;;;;;;;34.45;14.15;;;;;;;-3.13;100.00;99059.03;12209904;19;20029;-80
2022/12/15 09:10:26;;;;;;;37.03;13.25;;;;;;;-2.88;100.00;99044.34;12184814;19;20022;-80
2022/12/15 09:14:28;;;;;;;37.77;14.07;;;;;;;-2.71;100.00;99057.66;12203742;19;20453;-83
2022/12/15 09:18:31;;;;;;;33.85;11.98;;;;;;;-2.56;100.00;99074.69;12226217;19;20036;-78
2022/12/15 09:22:35;;;;;;;35.55;14.02;;;;;;;-2.39;100.00;99087.00;12205981;19;20006;-80
2022/12/15 09:26:37;;;;;;;22.80;9.93;;;;;;;-2.34;100.00;99089.16;12202549;19;20404;-80
2022/12/15 09:30:39;;;;;;;35.60;13.98;;;;;;;-2.43;100.00;99118.09;12182540;19;20492;-82
2022/12/15 09:34:41;;;;;;;33.20;13.18;;;;;;;-2.39;100.00;99092.41;12209881;19;20014;-79
2022/12/15 09:38:42;;;;;;;35.67;13.57;;;;;;;-2.31;100.00;99089.63;12239747;19;20003;-83
2022/12/15 09:42:52;;;;;;;42.90;14.37;;;;;;;-2.15;100.00;99098.56;12211519;19;20018;-81
2022/12/15 09:47:32;;;;;;;33.60;13.27;;;;;;;-2.12;100.00;99099.03;12206358;19;20002;-82
2022/12/15 09:51:42;;;;;;;36.40;13.10;;;;;;;-2.21;100.00;99100.13;12182574;19;20002;-81
2022/12/15 09:55:55;;;;;;;32.08;13.65;;;;;;;-2.13;100.00;99100.06;12201392;19;20484;-82
2022/12/15 10:00:05;;;;;;;32.47;13.80;;;;;;;-1.96;100.00;99114.22;12207051;19;20019;-82
2022/12/15 10:04:36;;;;;;;32.28;12.23;;;;;;;-1.65;100.00;99118.56;12184999;19;20040;-81
2022/12/15 10:08:48;;;;;;;33.05;12.25;;;;;;;-1.66;100.00;99128.53;12203162;19;20002;-81
2022/12/15 10:12:57;;;;;;;94.25;30.13;;;;;;;-1.69;100.00;99125.38;12194244;19;20036;-82
2022/12/15 10:17:16;;;;;;;32.03;11.20;;;;;;;-1.64;100.00;99101.31;12216694;19;20027;-79
2022/12/15 10:21:18;;;;;;;44.70;15.57;;;;;;;-1.42;100.00;99096.84;12223677;19;20011;-80
2022/12/15 10:25:23;;;;;;;34.40;13.23;;;;;;;-1.48;100.00;99094.88;12208134;19;20041;-79
2022/12/15 10:29:42;;;;;;;33.50;13.27;;;;;;;-1.64;100.00;99080.59;12227996;19;20003;-80
2022/12/15 10:33:54;;;;;;;33.97;13.65;;;;;;;-1.61;100.00;99079.34;12208291;19;20007;-78
2022/12/15 10:37:58;;;;;;;33.65;15.05;;;;;;;-1.41;100.00;99071.47;12228520;19;20002;-81
2022/12/15 10:42:12;;;;;;;35.08;13.43;;;;;;;-1.20;100.00;99073.34;12226969;19;20082;-81
2022/12/15 10:46:17;;;;;;;37.95;14.23;;;;;;;-1.07;100.00;99078.91;12187024;19;19999;-82
2022/12/15 10:50:24;;;;;;;34.92;14.45;;;;;;;-0.96;99.91;99067.56;12206570;19;20003;-80
2022/12/15 10:54:35;;;;;;;31.98;13.20;;;;;;;-0.92;99.57;99066.16;12200143;19;20051;-80
2022/12/15 10:58:50;;;;;;;33.78;13.40;;;;;;;-0.83;99.62;99066.88;12181680;19;20103;-81
2022/12/15 11:02:52;;;;;;;34.08;14.85;;;;;;;-1.04;97.45;99073.13;12199529;19;20014;-79
2022/12/15 11:07:00;;;;;;;33.65;13.68;;;;;;;-1.03;99.40;99071.25;12180045;19;20034;-80
2022/12/15 11:15:44;;;;;;;30.15;12.43;;;;;;;-0.84;99.66;99065.16;12205472;19;20011;-78
2022/12/15 11:20:01;;;;;;;31.27;12.68;;;;;;;-0.76;99.11;99067.75;12232768;19;20012;-78
2022/12/15 11:24:32;;;;;;;34.50;14.15;;;;;;;-0.85;96.67;99046.44;12256171;19;19998;-80
2022/12/15 11:28:44;;;;;;;;;;;;;;;-0.84;99.11;99035.41;12189455;19;20018;-78
2022/12/15 11:32:58;;;;;;;32.97;12.70;;;;;;;-0.59;99.12;99027.72;12208144;19;19918;-77
2022/12/15 11:37:32;;;;;;;28.00;12.32;;;;;;;-0.44;98.54;99026.78;12203663;19;20047;-81
2022/12/15 11:41:56;;;;;;;28.02;13.05;;;;;;;-0.29;98.50;99027.50;12212866;19;20007;-81
2022/12/15 11:46:22;;;;;;;32.88;12.73;;;;;;;-0.21;98.32;99016.50;12190541;19;20011;-81
2022/12/15 11:50:30;;;;;;;32.60;13.02;;;;;;;-0.20;97.97;99003.81;12210469;19;20039;-81
2022/12/15 11:54:52;;;;;;;31.83;13.15;;;;;;;-0.06;98.80;98998.25;12189731;19;20504;-77
2022/12/15 11:59:25;;;;;;;30.20;12.65;;;;;;;0.32;99.82;98994.22;12212162;19;20007;-81
2022/12/15 12:03:36;;;;;;;25.95;11.98;;;;;;;0.54;98.73;98978.66;12208430;19;20276;-81
2022/12/15 12:07:48;;;;;;;27.58;12.35;;;;;;;0.57;96.70;98980.97;12187161;19;20102;-79
2022/12/15 12:12:10;;;;;;;31.73;13.52;;;;;;;0.55;96.87;98983.03;12202362;19;20014;-78
2022/12/15 12:16:38;;;;;;;28.38;12.98;;;;;;;0.40;95.72;98978.63;12187037;19;20077;-80
2022/12/15 12:20:57;;;;;;;29.88;13.00;;;;;;;0.19;94.65;98989.59;12205929;19;20002;-80
2022/12/15 12:25:08;;;;;;;27.92;12.52;;;;;;;0.18;95.13;98993.38;12183323;19;20389;-77
2022/12/15 12:29:31;;;;;;;29.98;12.43;;;;;;;-0.08;94.55;98981.38;12209810;19;20007;-80
2022/12/15 12:33:41;;;;;;;34.65;13.75;;;;;;;-0.31;94.70;98965.44;12186276;19;20018;-80
2022/12/15 12:37:58;;;;;;;29.33;14.00;;;;;;;-0.44;95.54;98945.59;12210177;19;20405;-80
2022/12/15 12:42:36;;;;;;;33.45;14.40;;;;;;;-0.40;95.45;98936.84;12206843;19;20035;-79
2022/12/15 12:46:51;;;;;;;33.33;13.55;;;;;;;-0.59;94.98;98924.91;12231900;19;20015;-77
2022/12/15 12:51:09;;;;;;;34.25;13.63;;;;;;;-0.84;95.69;98929.94;12243014;19;20033;-79
2022/12/15 12:55:11;;;;;;;34.38;13.85;;;;;;;-0.89;95.95;98936.97;12184301;19;20092;-81
2022/12/15 12:59:27;;;;;;;30.98;12.80;;;;;;;-1.02;96.26;98938.53;12210920;19;20124;-80
2022/12/15 13:03:28;;;;;;;32.92;14.07;;;;;;;-1.08;96.22;98933.91;12204167;19;20018;-78
2022/12/15 13:07:39;;;;;;;36.67;13.38;;;;;;;-1.06;96.96;98934.56;12181286;19;20006;-78
2022/12/15 13:11:47;;;;;;;36.13;15.23;;;;;;;-1.01;97.30;98923.16;12196892;19;20003;-79
2022/12/15 13:16:00;;;;;;;38.60;15.75;;;;;;;-0.86;97.37;98912.22;12181409;19;20015;-78
2022/12/15 13:20:09;;;;;;;;;;;;;;;-0.69;97.33;98894.66;12202521;19;20007;-79
2022/12/15 13:24:36;;;;;;;36.13;14.63;;;;;;;-0.78;96.49;98890.44;12201937;19;19907;-79
2022/12/15 13:28:43;;;;;;;40.28;15.05;;;;;;;-0.90;96.69;98894.72;12223971;19;20006;-76
2022/12/15 13:32:51;;;;;;;36.85;15.10;;;;;;;-1.00;96.72;98882.41;12229302;19;20048;-80
2022/12/15 13:36:55;;;;;;;40.85;15.98;;;;;;;-1.11;97.31;98880.25;12185322;19;20043;-81
2022/12/15 13:40:57;;;;;;;32.83;13.75;;;;;;;-1.13;97.68;98865.25;12203436;19;20377;-81
2022/12/15 13:45:14;;;;;;;40.72;15.15;;;;;;;-1.13;97.65;98862.53;12198926;19;20491;-80
2022/12/15 13:49:27;;;;;;;36.50;14.20;;;;;;;-1.13;98.02;98870.66;12180236;19;20357;-81
2022/12/15 13:53:38;;;;;;;36.63;14.65;;;;;;;-1.23;97.66;98865.59;12200486;19;20456;-81
2022/12/15 13:57:53;;;;;;;40.17;14.85;;;;;;;-1.27;97.77;98856.22;12183035;19;20646;-81
2022/12/15 14:01:55;;;;;;;41.33;15.57;;;;;;;-1.27;98.18;98865.16;12197388;19;20011;-80
2022/12/15 14:05:58;;;;;;;;;;;;;;;-1.32;98.05;98872.19;12199991;19;20136;-81
2022/12/15 14:10:00;;;;;;;39.03;14.90;;;;;;;-1.29;98.04;98875.34;12179632;19;19992;-80
2022/12/15 14:14:02;;;;;;;37.67;14.60;;;;;;;-1.24;97.85;98875.59;12193831;19;20243;-80
2022/12/15 14:18:04;;;;;;;37.30;15.55;;;;;;;-1.30;97.26;98887.19;12203666;19;20007;-77
2022/12/15 14:22:19;;;;;;;45.75;16.38;;;;;;;-1.33;97.68;98873.22;12179000;19;20017;-79
2022/12/15 14:26:30;;;;;;;38.50;13.95;;;;;;;-1.41;97.93;98885.00;12200214;19;20017;-80
2022/12/15 14:30:33;;;;;;;37.50;15.32;;;;;;;-1.42;97.77;98883.34;12195039;19;20027;-82
2022/12/15 14:34:40;;;;;;;37.40;14.45;;;;;;;-1.50;97.75;98880.78;12198457;19;20110;-80
2022/12/15 14:38:52;;;;;;;45.75;18.00;;;;;;;-1.61;97.92;98896.50;12200729;19;20531;-80
2022/12/15 14:42:54;;;;;;;41.17;15.25;;;;;;;-1.72;98.17;98888.06;12184582;19;20038;-82
2022/12/15 14:46:56;;;;;;;41.87;16.30;;;;;;;-1.76;98.64;98898.41;12200022;19;20066;-81
2022/12/15 14:51:00;;;;;;;39.17;15.93;;;;;;;-1.84;98.39;98907.50;12199288;19;19998;-81
2022/12/15 14:55:23;;;;;;;37.45;14.80;;;;;;;-1.91;98.51;98901.16;12185814;19;20090;-80
2022/12/15 14:59:32;;;;;;;46.13;16.50;;;;;;;-1.94;99.00;98896.16;12219972;19;20032;-81
2022/12/15 15:03:39;;;;;;;44.50;17.02;;;;;;;-1.91;98.86;98894.94;12180838;19;20484;-80
2022/12/15 15:07:40;;;;;;;36.25;14.20;;;;;;;-2.00;98.07;98901.47;12207114;19;20003;-79
2022/12/15 15:11:42;;;;;;;45.97;16.07;;;;;;;-2.21;98.37;98900.44;12206418;19;20066;-80
2022/12/15 15:15:52;;;;;;;39.53;15.70;;;;;;;-2.38;99.09;98899.84;12182448;19;20030;-80
2022/12/15 15:19:59;;;;;;;46.45;16.52;;;;;;;-2.52;99.52;98903.38;12209095;19;20002;-80
2022/12/15 15:24:15;;;;;;;42.42;16.55;;;;;;;-2.71;99.99;98904.78;12207595;19;20010;-78
2022/12/15 15:28:17;;;;;;;42.53;15.82;;;;;;;-2.77;100.00;98911.78;12183695;19;20078;-79
2022/12/15 15:32:21;;;;;;;48.53;17.42;;;;;;;-2.81;100.00;98932.03;12212776;19;20006;-81
2022/12/15 15:36:41;;;;;;;61.58;21.30;;;;;;;-2.94;100.00;98931.84;12213593;19;20014;-81
2022/12/15 15:40:48;;;;;;;52.03;19.70;;;;;;;-2.96;100.00;98914.19;12190628;19;20007;-80
2022/12/15 15:44:49;;;;;;;54.78;20.15;;;;;;;-2.99;100.00;98904.59;12211341;19;20011;-78
2022/12/15 15:49:06;;;;;;;47.80;18.63;;;;;;;-3.04;100.00;98905.13;12192373;19;20447;-81
2022/12/15 15:53:15;;;;;;;55.50;19.05;;;;;;;-3.15;100.00;98907.44;12208576;19;20014;-77
2022/12/15 15:57:18;;;;;;;44.60;17.80;;;;;;;-3.28;100.00;98903.53;12208690;19;20023;-81
2022/12/15 16:01:19;;;;;;;;;;;;;;;-3.20;100.00;98897.25;12195626;19;20013;-80
2022/12/15 16:05:21;;;;;;;49.05;15.38;;;;;;;-3.15;100.00;98881.38;12212989;19;19911;-77
2022/12/15 16:09:23;;;;;;;43.33;16.90;;;;;;;-3.16;100.00;98884.22;12258257;19;20011;-77
2022/12/15 16:13:25;;;;;;;46.25;16.40;;;;;;;-3.18;100.00;98881.72;12232582;19;20015;-77
2022/12/15 16:17:27;;;;;;;36.95;15.32;;;;;;;-3.21;100.00;98876.72;12226690;19;20417;-79
2022/12/15 16:21:29;;;;;;;45.03;17.75;;;;;;;-3.27;100.00;98880.97;12206665;19;20007;-80
2022/12/15 16:25:35;;;;;;;47.07;17.90;;;;;;;-3.19;100.00;98890.81;12184573;19;20015;-79
2022/12/15 16:29:49;;;;;;;48.00;17.40;;;;;;;-3.14;100.00;98898.38;12206234;19;20460;-80
2022/12/15 16:33:50;;;;;;;45.38;16.40;;;;;;;-3.12;100.00;98902.56;12182141;19;19999;-80
2022/12/15 16:37:52;;;;;;;51.17;17.38;;;;;;;-3.01;100.00;98906.63;12209117;19;20075;-79
2022/12/15 16:41:55;;;;;;;45.38;15.88;;;;;;;-2.91;100.00;98904.53;12205570;19;20053;-79
2022/12/15 16:45:57;;;;;;;39.58;14.48;;;;;;;-2.79;100.00;98910.28;12187018;19;20011;-79
2022/12/15 16:49:58;;;;;;;39.83;15.50;;;;;;;-2.71;100.00;98898.56;12203464;19;20023;-80
2022/12/15 16:54:00;;;;;;;43.40;15.82;;;;;;;-2.67;100.00;98906.09;12203576;19;20421;-81
2022/12/15 16:58:04;;;;;;;46.50;16.70;;;;;;;-2.64;100.00;98904.88;12184190;19;20010;-81
2022/12/15 17:02:26;;;;;;;44.33;15.15;;;;;;;-2.66;100.00;98907.75;12207607;19;20023;-80
2022/12/15 17:06:29;;;;;;;44.40;15.18;;;;;;;-2.76;100.00;98913.44;12209546;19;20003;-81
2022/12/15 17:10:31;;;;;;;45.20;15.00;;;;;;;-2.82;100.00;98922.28;12184149;19;20583;-81
2022/12/15 17:14:33;;;;;;;47.28;15.80;;;;;;;-2.91;100.00;98909.91;12214831;19;20015;-78
2022/12/15 17:18:34;;;;;;;36.30;14.80;;;;;;;-2.94;100.00;98909.44;12180593;19;20030;-81
2022/12/15 17:22:36;;;;;;;38.95;14.43;;;;;;;-2.98;100.00;98906.25;12211682;19;20010;-81
2022/12/15 17:26:39;;;;;;;46.55;14.82;;;;;;;-3.02;100.00;98913.88;12205973;19;20734;-80
2022/12/15 17:30:41;;;;;;;45.47;15.52;;;;;;;-2.96;100.00;98922.28;12178554;19;20019;-80
2022/12/15 17:34:43;;;;;;;42.42;14.57;;;;;;;-2.91;100.00;98923.38;12202654;19;20078;-79
2022/12/15 17:38:45;;;;;;;46.35;15.38;;;;;;;-2.82;100.00;98919.56;12213965;19;20002;-80
2022/12/15 17:42:48;;;;;;;42.05;14.93;;;;;;;-2.70;100.00;98911.03;12193117;19;20003;-81
2022/12/15 17:46:53;;;;;;;44.53;16.80;;;;;;;-2.65;100.00;98903.19;12202937;19;20784;-81
2022/12/15 17:50:55;;;;;;;44.83;16.20;;;;;;;-2.56;100.00;98892.13;12206643;19;20006;-79
2022/12/15 17:54:57;;;;;;;40.63;14.43;;;;;;;-2.51;100.00;98883.47;12187451;19;20057;-80
2022/12/15 17:58:58;;;;;;;53.30;18.90;;;;;;;-2.48;100.00;98882.25;12247880;19;20024;-78
2022/12/15 18:03:00;;;;;;;58.42;18.15;;;;;;;-2.43;100.00;98869.88;12254078;19;20039;-81
2022/12/15 18:07:02;;;;;;;55.00;17.85;;;;;;;-2.38;100.00;98867.44;12197822;19;20460;-81
2022/12/15 18:11:04;;;;;;;42.37;17.10;;;;;;;-2.35;100.00;98860.81;12222541;19;20014;-77
2022/12/15 18:15:20;;;;;;;44.70;17.53;;;;;;;-2.27;100.00;98857.19;12227884;19;20303;-80
2022/12/15 18:19:22;;;;;;;35.03;15.02;;;;;;;-2.20;100.00;98852.69;12183791;19;20010;-81
2022/12/15 18:23:28;;;;;;;45.15;14.93;;;;;;;-2.19;100.00;98847.09;12205160;19;20031;-80
2022/12/15 18:27:31;;;;;;;40.67;13.68;;;;;;;-2.14;100.00;98835.72;12205077;19;20027;-79
2022/12/15 18:31:33;;;;;;;40.88;13.90;;;;;;;-2.09;100.00;98844.06;12184209;19;20014;-77
2022/12/15 18:35:41;;;;;;;39.35;15.85;;;;;;;-2.08;100.00;98846.59;12206505;19;20003;-80
2022/12/15 18:39:43;;;;;;;35.33;13.43;;;;;;;-2.08;100.00;98848.47;12184973;19;20011;-80
2022/12/15 18:43:46;;;;;;;;;;;;;;;-2.13;100.00;98846.34;12199816;19;20014;-81
2022/12/15 18:47:49;;;;;;;39.80;14.07;;;;;;;-2.21;100.00;98845.63;12200834;19;19982;-80
2022/12/15 18:51:51;;;;;;;40.05;14.60;;;;;;;-2.16;100.00;98838.63;12189407;19;20110;-80
2022/12/15 18:55:53;;;;;;;33.42;13.30;;;;;;;-2.18;100.00;98846.06;12201483;19;20002;-80
2022/12/15 18:59:58;;;;;;;36.40;13.68;;;;;;;-2.27;100.00;98844.50;12200650;19;20953;-80
2022/12/15 19:04:00;;;;;;;38.85;13.85;;;;;;;-2.32;100.00;98845.09;12176243;19;20010;-81
2022/12/15 19:08:08;;;;;;;38.33;13.57;;;;;;;-2.35;100.00;98834.69;12196629;19;20003;-81
2022/12/15 19:12:17;;;;;;;41.80;16.08;;;;;;;-2.36;100.00;98837.56;12243416;19;20015;-78
2022/12/15 19:16:20;;;;;;;37.88;14.60;;;;;;;-2.38;100.00;98835.06;12189602;19;20090;-81
2022/12/15 19:24:55;;;;;;;35.25;12.68;;;;;;;-2.57;100.00;98831.09;12170028;19;20036;-78
2022/12/15 19:28:57;;;;;;;37.58;15.18;;;;;;;-2.66;100.00;98828.72;12202035;19;20035;-82
2022/12/15 19:32:58;;;;;;;34.70;13.50;;;;;;;-2.70;100.00;98824.72;12202490;19;20078;-81
2022/12/15 19:37:02;;;;;;;46.47;16.77;;;;;;;-2.82;100.00;98821.69;12184896;19;20268;-80
2022/12/15 19:41:04;;;;;;;34.80;12.85;;;;;;;-2.93;100.00;98824.84;12208626;19;20011;-81
2022/12/15 19:45:18;;;;;;;33.35;12.60;;;;;;;-2.96;100.00;98815.28;12211683;19;20006;-80
2022/12/15 19:49:19;;;;;;;35.88;13.40;;;;;;;-3.00;100.00;98814.00;12190869;19;20202;-81
2022/12/15 19:53:27;;;;;;;30.25;11.73;;;;;;;-3.09;100.00;98801.63;12209282;19;20093;-79
2022/12/15 19:57:29;;;;;;;32.55;13.15;;;;;;;-3.14;100.00;98798.66;12217507;19;20010;-79
2022/12/15 20:01:31;;;;;;;28.75;11.98;;;;;;;-3.20;100.00;98792.16;12196811;19;20046;-81
2022/12/15 20:05:33;;;;;;;29.77;12.10;;;;;;;-3.22;100.00;98786.94;12209512;19;20079;-79
2022/12/15 20:09:34;;;;;;;30.93;11.37;;;;;;;-3.26;100.00;98788.34;12189691;19;20018;-82
2022/12/15 20:13:36;;;;;;;29.37;10.40;;;;;;;-3.23;100.00;98787.97;12206759;19;20003;-81
2022/12/15 20:17:38;;;;;;;26.05;10.73;;;;;;;-3.27;100.00;98794.75;12208143;19;20014;-80
2022/12/15 20:21:40;;;;;;;26.60;9.30;;;;;;;-3.28;100.00;98808.41;12186578;19;20011;-80
2022/12/15 20:25:42;;;;;;;29.50;12.15;;;;;;;-3.25;100.00;98800.78;12209687;19;20492;-80
2022/12/15 20:29:44;;;;;;;26.92;9.80;;;;;;;-3.25;100.00;98806.16;12205345;19;20003;-81
2022/12/15 20:33:46;;;;;;;28.63;10.87;;;;;;;-3.22;100.00;98807.66;12181339;19;20468;-80
2022/12/15 20:37:48;;;;;;;24.63;10.27;;;;;;;-3.22;100.00;98799.56;12209294;19;20010;-80
2022/12/15 20:41:51;;;;;;;27.30;10.15;;;;;;;-3.22;100.00;98805.81;12208899;19;20015;-81
2022/12/15 20:46:06;;;;;;;22.85;10.15;;;;;;;-3.22;100.00;98797.72;12188586;19;20458;-82
2022/12/15 20:50:36;;;;;;;25.20;10.05;;;;;;;-3.23;100.00;98806.84;12216905;19;20007;-82
2022/12/15 20:54:37;;;;;;;24.88;10.20;;;;;;;-3.22;100.00;98805.81;12183841;19;20074;-81
2022/12/15 20:58:39;;;;;;;29.52;10.55;;;;;;;-3.19;100.00;98807.28;12205862;19;20035;-80
2022/12/15 21:02:42;;;;;;;23.40;9.47;;;;;;;-3.18;100.00;98805.44;12206601;19;20090;-80
2022/12/15 21:06:43;;;;;;;;;;;;;;;-3.21;100.00;98812.88;12185129;19;20311;-82
2022/12/15 21:10:55;;;;;;;21.52;7.32;;;;;;;-3.18;100.00;98810.81;12206686;19;20322;-80
2022/12/15 21:14:57;;;;;;;18.98;8.23;;;;;;;-3.19;100.00;98806.47;12210321;19;20010;-80